Time;durP1;ratioP1;P1;durP2;ratioP2;P2;SDS_P1;SDS_P2;PMS_P1;PMS_P2;Temp;Humidity;BMP_temperature;BMP_pressure;BME280_temperature;BME280_humidity;BME280_pressure;Samples;Min_cycle;Max_cycle;Signal;HPM_P1;HPM_P2
2024/01/10 00:00:14;;;;;;;4.00;3.40;;;;;;;-147.86;100.00;-17609.17;105098;1267;60113;-41
2024/01/10 00:02:42;;;;;;;7.30;3.60;;;;;;;-147.86;100.00;-17609.17;105494;1268;73358;-43
2024/01/10 00:05:10;;;;;;;4.20;3.60;;;;;;;-147.86;100.00;-17609.17;105352;1263;64038;-42
2024/01/10 00:07:38;;;;;;;8.70;4.70;;;;;;;-147.86;100.00;-17609.17;105390;1260;71844;-42
2024/01/10 00:10:06;;;;;;;7.70;4.80;;;;;;;-147.86;100.00;-17609.17;105392;1263;59766;-44
2024/01/10 00:12:36;;;;;;;8.40;4.80;;;;;;;-147.86;100.00;-17609.17;105364;1263;59563;-43
2024/01/10 00:15:04;;;;;;;7.80;4.80;;;;;;;-147.86;100.00;-17609.17;105401;1273;72166;-43
2024/01/10 00:17:32;;;;;;;8.30;4.80;;;;;;;-147.86;100.00;-17609.17;105348;1259;65299;-43
2024/01/10 00:20:00;;;;;;;12.30;5.40;;;;;;;-147.86;100.00;-17609.17;105340;1263;71370;-43
2024/01/10 00:22:28;;;;;;;9.00;4.80;;;;;;;-147.86;100.00;-17609.17;105356;1263;59660;-43
2024/01/10 00:24:55;;;;;;;9.30;5.20;;;;;;;-147.86;100.00;-17609.17;105387;1263;59556;-43
2024/01/10 00:27:23;;;;;;;8.00;5.60;;;;;;;-147.86;100.00;-17609.17;105363;1265;73018;-42
2024/01/10 00:29:51;;;;;;;15.60;6.50;;;;;;;-147.86;100.00;-17609.17;105363;1263;63496;-43
2024/01/10 00:32:19;;;;;;;12.80;6.10;;;;;;;-147.86;100.00;-17609.17;105333;1264;71641;-43
2024/01/10 00:34:47;;;;;;;14.00;6.60;;;;;;;-147.86;100.00;-17609.17;105315;1260;60389;-42
2024/01/10 00:37:15;;;;;;;11.40;5.90;;;;;;;-147.86;100.00;-17609.17;105391;1263;59738;-43
2024/01/10 00:39:43;;;;;;;9.60;6.20;;;;;;;-147.86;100.00;-17609.17;105393;1263;72396;-43
2024/01/10 00:42:11;;;;;;;11.80;6.20;;;;;;;-147.86;100.00;-17609.17;105339;1256;64676;-42
2024/01/10 00:44:39;;;;;;;10.90;6.30;;;;;;;-147.86;100.00;-17609.17;105339;1263;71413;-43
2024/01/10 00:47:06;;;;;;;7.30;4.80;;;;;;;-147.86;100.00;-17609.17;105355;1264;61204;-43
2024/01/10 00:49:34;;;;;;;10.60;5.50;;;;;;;-147.86;100.00;-17609.17;105377;1265;59568;-43
2024/01/10 00:52:02;;;;;;;12.20;5.30;;;;;;;-147.86;100.00;-17609.17;105692;1254;72075;-44
2024/01/10 00:54:30;;;;;;;16.40;5.00;;;;;;;-147.86;100.00;-17609.17;105734;1259;65279;-43
2024/01/10 00:56:58;;;;;;;6.50;4.20;;;;;;;-147.86;100.00;-17609.17;105653;1259;71536;-43
2024/01/10 00:59:26;;;;;;;11.80;5.20;;;;;;;-147.86;100.00;-17609.17;105630;1255;59737;-44
2024/01/10 01:01:53;;;;;;;6.80;4.20;;;;;;;-147.86;100.00;-17609.17;105659;1260;59609;-42
2024/01/10 01:04:21;;;;;;;8.10;4.70;;;;;;;-147.86;100.00;-17609.17;105648;1257;71754;-43
2024/01/10 01:06:49;;;;;;;8.90;4.10;;;;;;;-147.86;100.00;-17609.17;105677;1258;64121;-43
2024/01/10 01:09:16;;;;;;;9.30;4.50;;;;;;;-147.86;100.00;-17609.17;105631;1259;70247;-43
2024/01/10 01:11:44;;;;;;;7.50;4.10;;;;;;;-147.86;100.00;-17609.17;105652;1254;61554;-43
2024/01/10 02:06:08;;;;;;;9.10;4.90;;;;;;;-147.86;100.00;-17609.17;102745;1290;600956;-43
2024/01/10 02:08:37;;;;;;;8.10;5.20;;;;;;;-147.86;100.00;-17609.17;105166;1264;59276;-43
2024/01/10 02:11:04;;;;;;;11.20;6.10;;;;;;;-147.86;100.00;-17609.17;105081;1269;60426;-43
2024/01/10 02:13:33;;;;;;;11.40;7.40;;;;;;;-147.86;100.00;-17609.17;104821;1264;70942;-43
2024/01/10 02:16:01;;;;;;;13.40;6.90;;;;;;;-147.86;100.00;-17609.17;105161;1264;64689;-43
2024/01/10 02:18:29;;;;;;;7.80;5.30;;;;;;;-147.86;100.00;-17609.17;105142;1265;71550;-43
2024/01/10 02:20:57;;;;;;;9.90;5.10;;;;;;;-147.86;100.00;-17609.17;104902;1266;388245;-43
2024/01/10 02:23:25;;;;;;;8.40;4.80;;;;;;;-147.86;100.00;-17609.17;105230;1264;59938;-44
2024/01/10 02:25:53;;;;;;;7.00;4.90;;;;;;;-147.86;100.00;-17609.17;105190;1264;70908;-42
2024/01/10 02:28:23;;;;;;;5.70;4.20;;;;;;;-147.86;100.00;-17609.17;105181;1264;65206;-42
2024/01/10 02:30:51;;;;;;;6.40;4.00;;;;;;;-147.86;100.00;-17609.17;105201;1266;72495;-43
2024/01/10 02:33:19;;;;;;;11.50;5.80;;;;;;;-147.86;100.00;-17609.17;105206;1266;59774;-43
2024/01/10 02:35:47;;;;;;;12.20;5.90;;;;;;;-147.86;100.00;-17609.17;105247;1264;59960;-43
2024/01/10 02:38:14;;;;;;;11.90;5.90;;;;;;;-147.86;100.00;-17609.17;105178;1264;72755;-44
2024/01/10 02:40:43;;;;;;;11.50;5.10;;;;;;;-147.86;100.00;-17609.17;105254;1264;65466;-43
2024/01/10 02:43:12;;;;;;;6.70;4.20;;;;;;;-147.86;100.00;-17609.17;105186;1266;71657;-43
2024/01/10 02:45:39;;;;;;;5.20;3.40;;;;;;;-147.86;100.00;-17609.17;105247;1264;59740;-42
2024/01/10 02:48:07;;;;;;;7.10;4.20;;;;;;;-147.86;100.00;-17609.17;105155;1264;60021;-44
2024/01/10 03:07:30;;;;;;;;;;;;;;;-147.86;100.00;-17609.17;102693;1292;600147;-43
2024/01/10 03:09:58;;;;;;;16.50;8.60;;;;;;;-147.86;100.00;-17609.17;104902;1266;59609;-43
2024/01/10 03:12:26;;;;;;;16.40;9.10;;;;;;;-147.86;100.00;-17609.17;104875;1267;59642;-44
2024/01/10 03:14:53;;;;;;;13.80;7.50;;;;;;;-147.86;100.00;-17609.17;104841;1270;71058;-43
2024/01/10 03:17:22;;;;;;;8.00;5.30;;;;;;;-147.86;100.00;-17609.17;104807;1270;63925;-43
2024/01/10 03:19:51;;;;;;;8.00;4.60;;;;;;;-147.86;100.00;-17609.17;104828;1271;71396;-43
2024/01/10 03:22:18;;;;;;;3.00;2.70;;;;;;;-147.86;100.00;-17609.17;104948;1263;217113;-43
2024/01/10 03:24:46;;;;;;;6.70;3.30;;;;;;;-147.86;100.00;-17609.17;105110;1269;59280;-44
2024/01/10 03:27:13;;;;;;;3.20;2.30;;;;;;;-147.86;100.00;-17609.17;105128;1263;70079;-44
2024/01/10 03:29:41;;;;;;;11.50;3.20;;;;;;;-147.86;100.00;-17609.17;105929;1254;63955;-44
2024/01/10 03:32:09;;;;;;;5.30;3.80;;;;;;;-147.86;100.00;-17609.17;105970;1257;71456;-43
2024/01/10 03:34:37;;;;;;;5.40;4.00;;;;;;;-147.86;100.00;-17609.17;105847;1257;60146;-43
2024/01/10 03:37:05;;;;;;;9.50;4.60;;;;;;;-147.86;100.00;-17609.17;105955;1256;59651;-44
2024/01/10 03:39:33;;;;;;;9.90;5.90;;;;;;;-147.86;100.00;-17609.17;105883;1257;71738;-42
2024/01/10 03:42:01;;;;;;;12.40;6.40;;;;;;;-147.86;100.00;-17609.17;105788;1254;63926;-43
2024/01/10 03:44:30;;;;;;;11.70;6.60;;;;;;;-147.86;100.00;-17609.17;105838;1253;71532;-43
2024/01/10 03:46:57;;;;;;;12.80;7.20;;;;;;;-147.86;100.00;-17609.17;105819;1253;59755;-44
2024/01/10 03:49:25;;;;;;;11.70;6.40;;;;;;;-147.86;100.00;-17609.17;105839;1254;59562;-43
2024/01/10 03:51:53;;;;;;;9.90;5.90;;;;;;;-147.86;100.00;-17609.17;105882;1253;72244;-43
2024/01/10 03:54:21;;;;;;;11.30;5.70;;;;;;;-147.86;100.00;-17609.17;105959;1253;64130;-44
2024/01/10 03:56:49;;;;;;;14.40;6.30;;;;;;;-147.86;100.00;-17609.17;105827;1257;71359;-43
2024/01/10 03:59:16;;;;;;;11.60;6.20;;;;;;;-147.86;100.00;-17609.17;109604;1252;59633;-43
2024/01/10 04:01:44;;;;;;;11.30;6.90;;;;;;;-147.86;100.00;-17609.17;109659;1252;60636;-43
2024/01/10 04:07:06;;;;;;;12.10;5.40;;;;;;;-147.86;100.00;-17609.17;103063;1293;600310;-44
2024/01/10 04:09:34;;;;;;;15.60;5.20;;;;;;;-147.86;100.00;-17609.17;105082;1265;59600;-44
2024/01/10 04:12:03;;;;;;;6.80;4.10;;;;;;;-147.86;100.00;-17609.17;105090;1270;59342;-43
2024/01/10 04:14:30;;;;;;;7.60;4.90;;;;;;;-147.86;100.00;-17609.17;105055;1269;72178;-43
2024/01/10 04:16:58;;;;;;;14.20;6.60;;;;;;;-147.86;100.00;-17609.17;105051;1263;65110;-43
2024/01/10 04:19:27;;;;;;;14.80;6.50;;;;;;;-147.86;100.00;-17609.17;105102;1269;71332;-43
2024/01/10 04:21:54;;;;;;;12.60;7.70;;;;;;;-147.86;100.00;-17609.17;104908;1266;448787;-43
2024/01/10 04:24:22;;;;;;;12.70;6.90;;;;;;;-147.86;100.00;-17609.17;106005;1251;59928;-43
2024/01/10 04:26:50;;;;;;;22.20;9.80;;;;;;;-147.86;100.00;-17609.17;105994;1251;70898;-43
2024/01/10 04:29:17;;;;;;;14.40;8.30;;;;;;;-147.86;100.00;-17609.17;105964;1251;64215;-44
2024/01/10 04:31:45;;;;;;;14.70;7.60;;;;;;;-147.86;100.00;-17609.17;105935;1251;71445;-43
2024/01/10 04:34:13;;;;;;;11.50;5.90;;;;;;;-147.86;100.00;-17609.17;105993;1254;60638;-43
2024/01/10 05:07:36;;;;;;;10.60;5.50;;;;;;;-147.86;100.00;-17609.17;102912;1289;600654;-41
2024/01/10 05:10:05;;;;;;;15.30;7.50;;;;;;;-147.86;100.00;-17609.17;104847;1270;60841;-43
2024/01/10 05:12:33;;;;;;;17.40;9.20;;;;;;;-147.86;100.00;-17609.17;104879;1271;59290;-43
2024/01/10 05:15:01;;;;;;;14.90;6.80;;;;;;;-147.86;100.00;-17609.17;104826;1270;74582;-42
2024/01/10 05:17:28;;;;;;;13.50;8.50;;;;;;;-147.86;100.00;-17609.17;104854;1266;63904;-42
2024/01/10 05:19:56;;;;;;;14.40;8.20;;;;;;;-147.86;100.00;-17609.17;104842;1269;71491;-43
2024/01/10 05:22:24;;;;;;;17.00;8.80;;;;;;;-147.86;100.00;-17609.17;104915;1269;376213;-43
2024/01/10 05:24:52;;;;;;;15.80;8.40;;;;;;;-147.86;100.00;-17609.17;105190;1263;59685;-43
2024/01/10 05:27:20;;;;;;;12.50;6.90;;;;;;;-147.86;100.00;-17609.17;105194;1269;70162;-43
2024/01/10 05:29:48;;;;;;;18.50;8.00;;;;;;;-147.86;100.00;-17609.17;105141;1267;63969;-43
2024/01/10 05:32:16;;;;;;;16.40;8.60;;;;;;;-147.86;100.00;-17609.17;105610;1259;70462;-44
2024/01/10 05:34:44;;;;;;;16.00;8.60;;;;;;;-147.86;100.00;-17609.17;105655;1259;59844;-43
2024/01/10 05:37:12;;;;;;;18.80;9.50;;;;;;;-147.86;100.00;-17609.17;105659;1260;59549;-43
2024/01/10 05:39:40;;;;;;;15.10;8.30;;;;;;;-147.86;100.00;-17609.17;105667;1257;72027;-43
2024/01/10 05:42:07;;;;;;;21.80;11.30;;;;;;;-147.86;100.00;-17609.17;105622;1254;65290;-43
2024/01/10 05:44:35;;;;;;;24.80;11.30;;;;;;;-147.86;100.00;-17609.17;105587;1259;72410;-44
2024/01/10 05:47:03;;;;;;;19.00;8.60;;;;;;;-147.86;100.00;-17609.17;105601;1259;59772;-43
2024/01/10 05:49:32;;;;;;;17.10;9.20;;;;;;;-147.86;100.00;-17609.17;105676;1256;59686;-43
2024/01/10 05:52:00;;;;;;;12.40;6.50;;;;;;;-147.86;100.00;-17609.17;105651;1257;72867;-44
2024/01/10 05:54:27;;;;;;;19.90;8.90;;;;;;;-147.86;100.00;-17609.17;105615;1259;63324;-43
2024/01/10 05:56:55;;;;;;;12.30;7.50;;;;;;;-147.86;100.00;-17609.17;105620;1260;71382;-44
2024/01/10 05:59:23;;;;;;;9.70;5.20;;;;;;;-147.86;100.00;-17609.17;105622;1258;59693;-44
2024/01/10 06:01:55;;;;;;;11.80;6.00;;;;;;;-147.86;100.00;-17609.17;105618;1259;59696;-43
2024/01/10 06:04:23;;;;;;;10.80;5.30;;;;;;;-147.86;100.00;-17609.17;105616;1260;71752;-43
2024/01/10 06:06:52;;;;;;;10.50;5.80;;;;;;;-147.86;100.00;-17609.17;105639;1260;63908;-43
2024/01/10 06:09:21;;;;;;;12.00;5.40;;;;;;;-147.86;100.00;-17609.17;105559;1262;72371;-44
2024/01/10 06:11:49;;;;;;;9.10;4.90;;;;;;;-147.86;100.00;-17609.17;105581;1258;60383;-44
2024/01/10 06:14:17;;;;;;;14.10;7.50;;;;;;;-147.86;100.00;-17609.17;105594;1261;60150;-43
2024/01/10 06:16:45;;;;;;;15.10;5.80;;;;;;;-147.86;100.00;-17609.17;105560;1256;71744;-43
2024/01/10 06:19:13;;;;;;;8.30;5.60;;;;;;;-147.86;100.00;-17609.17;105550;1262;63136;-44
2024/01/10 06:21:42;;;;;;;13.20;6.60;;;;;;;-147.86;100.00;-17609.17;105576;1262;71404;-43
2024/01/10 06:24:09;;;;;;;15.20;7.80;;;;;;;-147.86;100.00;-17609.17;105551;1260;61610;-43
2024/01/10 06:26:38;;;;;;;6.60;3.30;;;;;;;-147.86;100.00;-17609.17;105520;1261;59561;-43
2024/01/10 06:29:06;;;;;;;15.20;7.50;;;;;;;-147.86;100.00;-17609.17;105564;1262;72076;-44
2024/01/10 06:31:34;;;;;;;11.00;4.90;;;;;;;-147.86;100.00;-17609.17;105554;1259;64033;-43
2024/01/10 06:34:02;;;;;;;20.10;8.10;;;;;;;-147.86;100.00;-17609.17;105500;1262;72628;-43
2024/01/10 06:36:29;;;;;;;12.10;6.10;;;;;;;-147.86;100.00;-17609.17;105550;1262;60466;-44
2024/01/10 06:38:58;;;;;;;12.10;7.30;;;;;;;-147.86;100.00;-17609.17;105511;1261;59568;-43
2024/01/10 06:41:25;;;;;;;14.20;7.10;;;;;;;-147.86;100.00;-17609.17;105582;1261;71759;-43
2024/01/10 06:43:54;;;;;;;12.60;7.20;;;;;;;-147.86;100.00;-17609.17;105525;1257;63982;-42
2024/01/10 06:46:22;;;;;;;14.30;7.50;;;;;;;-147.86;100.00;-17609.17;105579;1261;71597;-43
2024/01/10 06:48:50;;;;;;;16.10;7.00;;;;;;;-147.86;100.00;-17609.17;105532;1262;59647;-43
2024/01/10 06:51:17;;;;;;;12.60;7.00;;;;;;;-147.86;100.00;-17609.17;105611;1261;59644;-43
2024/01/10 06:53:46;;;;;;;17.60;8.10;;;;;;;-147.86;100.00;-17609.17;105516;1256;72164;-44
2024/01/10 06:56:13;;;;;;;21.30;8.70;;;;;;;-147.86;100.00;-17609.17;105537;1262;65262;-43
2024/01/10 06:58:42;;;;;;;21.70;8.40;;;;;;;-147.86;100.00;-17609.17;105389;1264;71437;-43
2024/01/10 07:01:13;;;;;;;17.60;7.90;;;;;;;-147.86;100.00;-17609.17;105530;1258;59747;-44
2024/01/10 07:03:42;;;;;;;18.90;9.00;;;;;;;-147.86;100.00;-17609.17;105583;1261;59563;-43
2024/01/10 07:06:14;;;;;;;14.20;5.40;;;;;;;-147.86;100.00;-17609.17;105547;1260;72983;-43
2024/01/10 07:08:47;;;;;;;14.60;8.60;;;;;;;-147.86;100.00;-17609.17;105574;1261;63950;-43
2024/01/10 07:11:15;;;;;;;14.30;7.30;;;;;;;-147.86;100.00;-17609.17;105553;1257;72034;-44
2024/01/10 07:13:43;;;;;;;16.30;8.40;;;;;;;-147.86;100.00;-17609.17;105581;1258;59989;-43
2024/01/10 07:16:11;;;;;;;18.50;8.90;;;;;;;-147.86;100.00;-17609.17;105544;1261;59649;-44
2024/01/10 07:18:38;;;;;;;18.00;8.90;;;;;;;-147.86;100.00;-17609.17;105519;1256;71761;-44
2024/01/10 07:21:09;;;;;;;16.90;9.00;;;;;;;-147.86;100.00;-17609.17;105550;1262;64035;-43
2024/01/10 07:23:40;;;;;;;19.70;8.80;;;;;;;-147.86;100.00;-17609.17;109105;1256;75311;-42
2024/01/10 07:26:08;;;;;;;9.10;4.80;;;;;;;-147.86;100.00;-17609.17;109096;1256;60630;-42
2024/01/10 07:28:35;;;;;;;14.80;8.10;;;;;;;-147.86;100.00;-17609.17;109141;1257;60020;-42
2024/01/10 07:31:03;;;;;;;9.10;4.70;;;;;;;-147.86;100.00;-17609.17;109122;1257;71891;-42
2024/01/10 07:33:31;;;;;;;16.50;9.80;;;;;;;-147.86;100.00;-17609.17;109129;1256;65201;-42
2024/01/10 07:35:59;;;;;;;17.60;9.10;;;;;;;-147.86;100.00;-17609.17;109142;1257;72848;-42
2024/01/10 07:38:27;;;;;;;13.80;6.80;;;;;;;-147.86;100.00;-17609.17;109023;1257;58027;-42
2024/01/10 07:40:54;;;;;;;9.20;5.10;;;;;;;-147.86;100.00;-17609.17;109105;1256;60055;-42
2024/01/10 07:43:22;;;;;;;12.80;5.40;;;;;;;-147.86;100.00;-17609.17;109154;1256;73033;-43
2024/01/10 07:45:50;;;;;;;13.10;6.70;;;;;;;-147.86;100.00;-17609.17;109152;1256;65187;-42
2024/01/10 07:48:19;;;;;;;20.00;9.50;;;;;;;-147.86;100.00;-17609.17;109103;1257;71439;-42
2024/01/10 07:50:47;;;;;;;13.70;8.00;;;;;;;-147.86;100.00;-17609.17;109120;1258;59648;-42
2024/01/10 07:53:15;;;;;;;18.40;10.20;;;;;;;-147.86;100.00;-17609.17;109171;1256;62331;-42
2024/01/10 07:55:43;;;;;;;21.10;10.20;;;;;;;-147.86;100.00;-17609.17;109152;1256;73309;-43
2024/01/10 07:58:10;;;;;;;15.30;7.10;;;;;;;-147.86;100.00;-17609.17;109122;1257;66319;-42
2024/01/10 08:00:38;;;;;;;15.70;9.10;;;;;;;-147.86;100.00;-17609.17;109126;1257;73607;-42
2024/01/10 08:06:23;;;;;;;18.90;9.80;;;;;;;-147.86;100.00;-17609.17;102771;1294;600764;-43
2024/01/10 08:08:59;;;;;;;17.70;9.30;;;;;;;-147.86;100.00;-17609.17;105153;1269;63884;-44
2024/01/10 08:11:27;;;;;;;17.00;8.60;;;;;;;-147.86;100.00;-17609.17;105168;1270;59282;-43
2024/01/10 08:13:55;;;;;;;17.90;8.90;;;;;;;-147.86;100.00;-17609.17;105138;1264;71934;-43
2024/01/10 08:16:23;;;;;;;20.50;8.10;;;;;;;-147.86;100.00;-17609.17;105131;1268;63918;-43
2024/01/10 08:18:51;;;;;;;18.70;10.10;;;;;;;-147.86;100.00;-17609.17;105740;1254;223526;-43
2024/01/10 08:21:19;;;;;;;19.30;9.10;;;;;;;-147.86;100.00;-17609.17;106048;1255;60776;-43
2024/01/10 08:23:47;;;;;;;16.30;8.60;;;;;;;-147.86;100.00;-17609.17;106044;1254;59256;-43
2024/01/10 08:26:15;;;;;;;21.40;9.20;;;;;;;-147.86;100.00;-17609.17;105973;1251;72183;-44
2024/01/10 08:28:44;;;;;;;13.30;7.20;;;;;;;-147.86;100.00;-17609.17;106008;1252;63967;-43
2024/01/10 08:31:12;;;;;;;17.80;7.40;;;;;;;-147.86;100.00;-17609.17;106031;1251;71637;-45
2024/01/10 08:33:41;;;;;;;23.80;10.60;;;;;;;-147.86;100.00;-17609.17;106046;1255;63668;-43
2024/01/10 08:36:12;;;;;;;18.80;9.30;;;;;;;-147.86;100.00;-17609.17;106054;1254;59761;-43
2024/01/10 08:38:41;;;;;;;34.60;10.90;;;;;;;-147.86;100.00;-17609.17;105976;1250;71798;-43
2024/01/10 08:41:11;;;;;;;21.80;10.50;;;;;;;-147.86;100.00;-17609.17;106050;1252;64649;-43
2024/01/10 08:43:39;;;;;;;20.50;9.40;;;;;;;-147.86;100.00;-17609.17;106014;1256;72865;-43
2024/01/10 08:46:09;;;;;;;19.20;9.90;;;;;;;-147.86;100.00;-17609.17;105979;1258;60829;-44
2024/01/10 08:48:37;;;;;;;21.70;10.80;;;;;;;-147.86;100.00;-17609.17;106034;1252;59967;-43
2024/01/10 09:07:36;;;;;;;;;;;;;;;-147.86;100.00;-17609.17;102734;1289;600215;-44
2024/01/10 09:10:05;;;;;;;17.70;9.30;;;;;;;-147.86;100.00;-17609.17;104894;1265;59843;-43
2024/01/10 09:12:33;;;;;;;19.00;9.20;;;;;;;-147.86;100.00;-17609.17;104876;1267;59979;-44
2024/01/10 09:15:01;;;;;;;16.90;8.70;;;;;;;-147.86;100.00;-17609.17;104921;1265;70990;-44
2024/01/10 09:17:30;;;;;;;18.10;9.00;;;;;;;-147.86;100.00;-17609.17;104890;1270;65718;-43
2024/01/10 09:19:58;;;;;;;24.80;9.50;;;;;;;-147.86;100.00;-17609.17;104843;1266;71638;-43
2024/01/10 09:22:27;;;;;;;15.20;8.50;;;;;;;-147.86;100.00;-17609.17;104688;1268;576621;-44
2024/01/10 09:24:54;;;;;;;18.50;9.50;;;;;;;-147.86;100.00;-17609.17;105148;1263;59927;-43
2024/01/10 09:27:22;;;;;;;18.80;9.40;;;;;;;-147.86;100.00;-17609.17;105150;1267;72203;-43
2024/01/10 09:29:50;;;;;;;19.60;10.00;;;;;;;-147.86;100.00;-17609.17;105116;1263;64000;-44
2024/01/10 09:32:18;;;;;;;21.50;9.90;;;;;;;-147.86;100.00;-17609.17;105052;1268;72536;-43
2024/01/10 09:34:46;;;;;;;15.60;9.50;;;;;;;-147.86;100.00;-17609.17;105213;1267;60753;-44
2024/01/10 09:37:14;;;;;;;19.60;8.70;;;;;;;-147.86;100.00;-17609.17;105160;1265;59564;-45
2024/01/10 09:39:42;;;;;;;20.60;9.80;;;;;;;-147.86;100.00;-17609.17;105138;1263;72966;-43
2024/01/10 09:42:10;;;;;;;17.30;8.80;;;;;;;-147.86;100.00;-17609.17;105061;1262;64074;-44
2024/01/10 09:44:39;;;;;;;21.90;9.50;;;;;;;-147.86;100.00;-17609.17;105030;1263;72613;-43
2024/01/10 09:47:07;;;;;;;19.40;8.30;;;;;;;-147.86;100.00;-17609.17;105207;1267;62874;-43
2024/01/10 09:49:35;;;;;;;18.50;9.30;;;;;;;-147.86;100.00;-17609.17;105194;1265;59753;-43
2024/01/10 09:52:04;;;;;;;18.60;9.10;;;;;;;-147.86;100.00;-17609.17;105165;1263;75291;-43
2024/01/10 09:54:31;;;;;;;17.70;8.60;;;;;;;-147.86;100.00;-17609.17;105172;1267;65243;-43
2024/01/10 09:56:59;;;;;;;19.40;9.20;;;;;;;-147.86;100.00;-17609.17;105069;1263;73384;-44
2024/01/10 09:59:27;;;;;;;15.70;9.40;;;;;;;-147.86;100.00;-17609.17;105160;1264;60310;-43
2024/01/10 10:01:56;;;;;;;13.70;8.20;;;;;;;-147.86;100.00;-17609.17;104905;1265;59651;-43
2024/01/10 10:04:24;;;;;;;20.40;8.90;;;;;;;-147.86;100.00;-17609.17;105169;1264;71973;-44
2024/01/10 10:07:00;;;;;;;21.40;8.80;;;;;;;-147.86;100.00;-17609.17;104832;1264;64358;-44
2024/01/10 10:09:31;;;;;;;19.20;8.60;;;;;;;-147.86;100.00;-17609.17;105069;1264;74639;-44
2024/01/10 10:11:59;;;;;;;13.90;7.00;;;;;;;-147.86;100.00;-17609.17;105064;1268;60327;-43
2024/01/10 10:14:28;;;;;;;18.50;9.70;;;;;;;-147.86;100.00;-17609.17;105095;1264;59931;-43
2024/01/10 10:16:56;;;;;;;17.60;8.10;;;;;;;-147.86;100.00;-17609.17;105092;1264;73859;-42
2024/01/10 10:19:25;;;;;;;13.90;6.90;;;;;;;-147.86;100.00;-17609.17;104786;1271;65953;-44
2024/01/10 10:22:10;;;;;;;12.10;6.60;;;;;;;-147.86;100.00;-17609.17;105034;1266;71471;-43
2024/01/10 10:24:38;;;;;;;15.70;7.90;;;;;;;-147.86;100.00;-17609.17;104889;1270;61128;-42
2024/01/10 10:27:09;;;;;;;15.00;7.50;;;;;;;-147.86;100.00;-17609.17;105038;1268;60053;-44
2024/01/10 10:29:37;;;;;;;20.30;8.00;;;;;;;-147.86;100.00;-17609.17;104791;1264;72727;-42
2024/01/10 10:32:08;;;;;;;18.40;7.90;;;;;;;-147.86;100.00;-17609.17;105066;1264;65694;-42
2024/01/10 10:34:37;;;;;;;13.80;7.60;;;;;;;-147.86;100.00;-17609.17;104997;1265;75121;-43
2024/01/10 10:37:05;;;;;;;14.50;7.30;;;;;;;-147.86;100.00;-17609.17;104919;1270;61544;-43
2024/01/10 10:39:33;;;;;;;17.00;7.50;;;;;;;-147.86;100.00;-17609.17;104855;1264;61120;-44
2024/01/10 10:42:01;;;;;;;14.30;7.60;;;;;;;-147.86;100.00;-17609.17;104832;1270;73543;-44
2024/01/10 10:44:28;;;;;;;13.80;7.50;;;;;;;-147.86;100.00;-17609.17;104879;1270;67588;-45
2024/01/10 10:46:57;;;;;;;13.60;8.00;;;;;;;-147.86;100.00;-17609.17;104834;1264;74530;-44
2024/01/10 10:49:50;;;;;;;19.40;7.80;;;;;;;-147.86;100.00;-17609.17;104844;1270;59663;-44
2024/01/10 10:52:19;;;;;;;14.10;7.80;;;;;;;-147.86;100.00;-17609.17;105064;1264;59951;-42
2024/01/10 10:54:47;;;;;;;13.00;7.60;;;;;;;-147.86;100.00;-17609.17;104831;1264;71044;-44
2024/01/10 10:57:16;;;;;;;14.40;7.80;;;;;;;-147.86;100.00;-17609.17;104829;1266;65761;-43
2024/01/10 10:59:44;;;;;;;11.00;5.40;;;;;;;-147.86;100.00;-17609.17;105058;1264;72555;-43
2024/01/10 11:02:11;;;;;;;16.00;7.80;;;;;;;-147.86;100.00;-17609.17;104899;1266;60042;-43
2024/01/10 11:04:40;;;;;;;12.20;7.20;;;;;;;-147.86;100.00;-17609.17;104815;1269;61103;-43
2024/01/10 11:07:08;;;;;;;15.80;7.90;;;;;;;-147.86;100.00;-17609.17;104858;1271;72955;-43
2024/01/10 11:09:36;;;;;;;18.50;8.70;;;;;;;-147.86;100.00;-17609.17;105071;1263;63053;-43
2024/01/10 11:12:20;;;;;;;14.60;8.00;;;;;;;-147.86;100.00;-17609.17;104978;1264;73391;-43
2024/01/10 11:15:11;;;;;;;13.10;6.40;;;;;;;-147.86;100.00;-17609.17;104872;1269;61350;-44
2024/01/10 11:17:50;;;;;;;15.40;8.30;;;;;;;-147.86;100.00;-17609.17;104825;1264;59656;-44
2024/01/10 11:20:48;;;;;;;21.90;8.20;;;;;;;-147.86;100.00;-17609.17;104876;1269;74268;-44
2024/01/10 11:23:47;;;;;;;15.00;7.90;;;;;;;-147.86;100.00;-17609.17;104893;1266;65333;-43
2024/01/10 11:26:15;;;;;;;18.10;8.10;;;;;;;-147.86;100.00;-17609.17;105267;1257;72998;-43
2024/01/10 11:28:43;;;;;;;14.80;7.30;;;;;;;-147.86;100.00;-17609.17;105194;1257;60816;-42
2024/01/10 11:31:12;;;;;;;11.70;6.50;;;;;;;-147.86;100.00;-17609.17;105149;1256;60437;-43
2024/01/10 11:33:43;;;;;;;15.60;7.70;;;;;;;-147.86;100.00;-17609.17;105252;1264;74184;-43
2024/01/10 11:37:12;;;;;;;;;;;;;;;-147.86;100.00;-17609.17;102724;1292;601057;-43
2024/01/10 11:39:42;;;;;;;15.70;8.20;;;;;;;-147.86;100.00;-17609.17;104847;1267;62091;-43
2024/01/10 11:42:10;;;;;;;17.30;8.20;;;;;;;-147.86;100.00;-17609.17;104880;1267;61858;-43
2024/01/10 11:44:49;;;;;;;17.70;9.30;;;;;;;-147.86;100.00;-17609.17;104825;1269;71505;-43
2024/01/10 11:47:20;;;;;;;15.80;8.90;;;;;;;-147.86;100.00;-17609.17;104896;1271;65324;-43
2024/01/10 11:49:55;;;;;;;14.20;8.00;;;;;;;-147.86;100.00;-17609.17;104726;1270;205220;-43
2024/01/10 11:52:24;;;;;;;15.50;7.60;;;;;;;-147.86;100.00;-17609.17;105172;1269;61533;-44
2024/01/10 11:54:52;;;;;;;17.90;9.00;;;;;;;-147.86;100.00;-17609.17;105270;1263;59949;-43
2024/01/10 11:57:24;;;;;;;16.40;8.50;;;;;;;-147.86;100.00;-17609.17;105168;1263;73404;-43
2024/01/10 11:59:52;;;;;;;13.40;8.00;;;;;;;-147.86;100.00;-17609.17;105237;1270;65234;-43
2024/01/10 12:02:22;;;;;;;16.20;8.10;;;;;;;-147.86;100.00;-17609.17;105202;1267;73260;-42
2024/01/10 12:04:50;;;;;;;13.60;7.60;;;;;;;-147.86;100.00;-17609.17;104985;1268;60604;-44
2024/01/10 12:07:19;;;;;;;16.10;7.00;;;;;;;-147.86;100.00;-17609.17;105027;1263;60873;-45
2024/01/10 12:09:48;;;;;;;16.90;7.40;;;;;;;-147.86;100.00;-17609.17;104990;1264;72920;-43
2024/01/10 12:12:16;;;;;;;17.20;7.50;;;;;;;-147.86;100.00;-17609.17;104995;1269;65104;-44
2024/01/10 12:14:44;;;;;;;15.10;7.40;;;;;;;-147.86;100.00;-17609.17;105227;1265;72176;-43
2024/01/10 12:17:12;;;;;;;16.40;8.80;;;;;;;-147.86;100.00;-17609.17;105257;1265;61135;-44
2024/01/10 12:19:44;;;;;;;17.60;8.20;;;;;;;-147.86;100.00;-17609.17;105182;1261;60717;-44
2024/01/10 12:22:16;;;;;;;18.20;8.30;;;;;;;-147.86;100.00;-17609.17;105306;1266;75763;-44
2024/01/10 12:24:45;;;;;;;18.20;8.50;;;;;;;-147.86;100.00;-17609.17;105250;1263;67788;-43
2024/01/10 12:27:13;;;;;;;16.80;7.50;;;;;;;-147.86;100.00;-17609.17;105201;1266;72553;-44
2024/01/10 12:29:41;;;;;;;14.70;7.70;;;;;;;-147.86;100.00;-17609.17;105072;1269;60166;-44
2024/01/10 12:32:09;;;;;;;15.40;7.90;;;;;;;-147.86;100.00;-17609.17;105204;1266;59750;-44
2024/01/10 12:34:40;;;;;;;17.10;7.30;;;;;;;-147.86;100.00;-17609.17;105206;1265;73036;-43
2024/01/10 12:37:07;;;;;;;16.50;8.30;;;;;;;-147.86;100.00;-17609.17;105254;1266;65175;-44
2024/01/10 12:39:36;;;;;;;14.20;8.20;;;;;;;-147.86;100.00;-17609.17;105638;1260;74639;-44
2024/01/10 12:42:04;;;;;;;15.30;8.40;;;;;;;-147.86;100.00;-17609.17;105703;1259;59836;-42
2024/01/10 12:44:32;;;;;;;17.40;8.30;;;;;;;-147.86;100.00;-17609.17;105693;1261;59638;-44
2024/01/10 12:47:00;;;;;;;15.60;9.10;;;;;;;-147.86;100.00;-17609.17;105738;1258;72654;-44
2024/01/10 12:49:28;;;;;;;16.40;8.40;;;;;;;-147.86;100.00;-17609.17;105705;1259;65125;-44
2024/01/10 12:51:56;;;;;;;16.90;9.00;;;;;;;-147.86;100.00;-17609.17;105743;1259;73307;-44
2024/01/10 12:54:24;;;;;;;14.80;7.70;;;;;;;-147.86;100.00;-17609.17;105791;1258;60092;-44
2024/01/10 12:56:52;;;;;;;16.30;8.30;;;;;;;-147.86;100.00;-17609.17;105706;1257;61083;-43